Time;durP1;ratioP1;P1;durP2;ratioP2;P2;SDS_P1;SDS_P2;PMS_P1;PMS_P2;Temp;Humidity;BMP_temperature;BMP_pressure;BME280_temperature;BME280_humidity;BME280_pressure;Samples;Min_cycle;Max_cycle;Signal;HPM_P1;HPM_P2
2022/07/14 00:01:51;;;;;;;7.20;4.20;;;;;;;23.60;44.41;99008.05;234153;1200;139292;-56
2022/07/14 00:06:54;;;;;;;7.10;4.50;;;;;;;23.55;44.60;99005.66;234077;1199;138691;-57
2022/07/14 00:11:57;;;;;;;10.70;4.50;;;;;;;23.52;44.79;99001.67;234066;1199;139060;-56
2022/07/14 00:17:00;;;;;;;11.00;4.10;;;;;;;23.48;44.81;98999.16;233987;1200;139640;-55
2022/07/14 00:22:03;;;;;;;6.70;3.90;;;;;;;23.43;44.93;98995.76;234005;1199;139290;-58
2022/07/14 00:27:06;;;;;;;7.80;4.00;;;;;;;23.38;45.04;98994.33;234159;1199;139011;-58
2022/07/14 00:32:09;;;;;;;8.00;3.90;;;;;;;23.32;45.16;98991.61;234005;1201;139046;-57
2022/07/14 00:37:13;;;;;;;7.80;4.30;;;;;;;23.25;45.20;98995.45;233984;1200;138821;-58
2022/07/14 00:42:33;;;;;;;7.90;4.20;;;;;;;23.17;45.27;98993.32;234077;1200;138689;-59
2022/07/14 00:47:37;;;;;;;7.50;4.60;;;;;;;23.09;45.39;98993.52;233987;1201;139521;-59
2022/07/14 00:52:42;;;;;;;11.40;4.00;;;;;;;23.03;45.51;98990.05;233913;1201;140301;-59
2022/07/14 00:57:46;;;;;;;7.70;4.80;;;;;;;22.99;45.67;98989.39;234035;1199;138983;-59
2022/07/14 01:02:50;;;;;;;9.30;4.30;;;;;;;22.93;45.75;98986.41;234116;1200;139839;-58
2022/07/14 01:07:53;;;;;;;8.30;4.30;;;;;;;22.89;45.91;98980.91;234064;1201;139773;-58
2022/07/14 01:13:05;;;;;;;6.50;4.00;;;;;;;22.83;45.95;98968.41;233940;1201;139185;-58
2022/07/14 01:18:08;;;;;;;7.80;4.00;;;;;;;22.77;45.98;98969.45;234088;1200;141134;-59
2022/07/14 01:23:11;;;;;;;6.30;3.90;;;;;;;22.70;45.98;98974.77;234020;1201;140240;-58
2022/07/14 01:28:14;;;;;;;11.20;4.20;;;;;;;22.64;46.12;98968.00;234166;1199;139300;-57
2022/07/14 01:33:17;;;;;;;9.00;4.20;;;;;;;22.61;46.28;98967.64;234162;1200;139415;-56
2022/07/14 01:38:20;;;;;;;8.40;4.20;;;;;;;22.59;46.37;98960.97;234185;1199;138799;-55
2022/07/14 01:43:23;;;;;;;11.50;4.50;;;;;;;22.55;46.39;98963.82;233983;1202;138952;-58
2022/07/14 01:48:26;;;;;;;7.50;4.60;;;;;;;22.55;46.51;98961.65;234044;1200;139557;-58
2022/07/14 01:53:29;;;;;;;9.90;3.80;;;;;;;22.53;46.59;98958.74;234052;1200;140026;-59
2022/07/14 01:58:32;;;;;;;7.10;3.90;;;;;;;22.53;46.63;98955.57;234109;1199;139156;-57
2022/07/14 02:03:35;;;;;;;8.00;4.50;;;;;;;22.53;46.61;98961.02;234012;1200;139371;-58
2022/07/14 02:08:39;;;;;;;8.00;4.20;;;;;;;22.50;46.70;98958.75;233989;1200;139026;-59
2022/07/14 02:13:42;;;;;;;6.40;4.40;;;;;;;22.48;46.72;98949.98;234193;1201;139328;-57
2022/07/14 02:18:45;;;;;;;9.10;4.20;;;;;;;22.46;46.76;98953.77;234022;1200;140480;-58
2022/07/14 02:23:48;;;;;;;7.60;3.70;;;;;;;22.46;46.72;98956.87;233998;1200;138799;-63
2022/07/14 02:28:53;;;;;;;9.60;4.20;;;;;;;22.47;46.72;98948.80;233921;1201;138893;-59
2022/07/14 02:33:56;;;;;;;7.30;3.90;;;;;;;22.46;46.66;98947.13;234045;1201;138845;-60
2022/07/14 02:38:59;;;;;;;7.10;4.00;;;;;;;22.43;46.62;98951.71;233972;1200;139289;-59
2022/07/14 02:44:02;;;;;;;9.50;4.00;;;;;;;22.42;46.53;98952.23;234087;1201;138608;-59
2022/07/14 02:49:06;;;;;;;5.50;3.30;;;;;;;22.41;46.46;98956.47;234031;1200;138626;-60
2022/07/14 02:54:11;;;;;;;44.20;35.60;;;;;;;22.41;46.57;98959.02;233980;1200;139631;-61
2022/07/14 02:59:14;;;;;;;24.20;19.10;;;;;;;22.46;46.56;98963.40;233980;1199;139171;-59
2022/07/14 03:04:20;;;;;;;8.30;4.70;;;;;;;22.49;46.48;98953.10;234072;1199;139545;-59
2022/07/14 03:09:25;;;;;;;196.60;163.90;;;;;;;22.59;46.43;98959.38;233982;1201;140348;-58
2022/07/14 03:14:28;;;;;;;15.80;9.80;;;;;;;22.64;46.37;98955.86;234016;1201;139449;-59
2022/07/14 03:19:31;;;;;;;7.10;4.70;;;;;;;22.65;46.26;98946.88;234127;1200;139165;-57
2022/07/14 03:24:34;;;;;;;212.60;173.50;;;;;;;22.64;46.57;98947.21;233972;1201;139426;-58
2022/07/14 03:29:40;;;;;;;12.00;8.00;;;;;;;22.61;46.80;98949.94;234102;1201;139661;-58
2022/07/14 03:34:44;;;;;;;7.60;4.40;;;;;;;22.52;47.13;98949.15;234066;1201;138965;-58
2022/07/14 03:39:47;;;;;;;7.00;4.30;;;;;;;22.44;47.52;98954.39;233986;1201;138861;-57
2022/07/14 03:44:50;;;;;;;42.50;32.40;;;;;;;22.41;47.81;98952.13;234037;1201;139228;-58
2022/07/14 03:49:54;;;;;;;12.30;6.00;;;;;;;22.40;48.04;98951.05;234067;1201;139471;-59
2022/07/14 03:54:57;;;;;;;8.80;4.30;;;;;;;22.37;48.09;98952.95;233958;1202;140323;-57
2022/07/14 04:00:01;;;;;;;9.60;4.50;;;;;;;22.39;48.21;98955.08;233862;1201;138841;-60
2022/07/14 04:05:07;;;;;;;8.40;4.80;;;;;;;22.49;48.00;98956.34;234097;1201;139564;-58
2022/07/14 04:10:10;;;;;;;9.10;4.30;;;;;;;22.60;47.73;98954.59;233924;1201;139293;-59
2022/07/14 04:15:14;;;;;;;9.40;4.90;;;;;;;22.70;47.57;98956.55;233993;1201;138656;-58
2022/07/14 04:20:17;;;;;;;8.00;4.70;;;;;;;22.76;47.41;98945.52;234208;1199;139825;-56
2022/07/14 04:25:21;;;;;;;13.60;4.80;;;;;;;22.81;47.24;98938.77;234025;1200;139191;-57
2022/07/14 04:30:24;;;;;;;16.50;4.50;;;;;;;22.84;47.09;98933.70;233998;1200;139493;-57
2022/07/14 04:35:27;;;;;;;12.10;4.20;;;;;;;22.80;47.02;98939.33;234160;1200;139181;-56
2022/07/14 04:40:31;;;;;;;8.70;4.40;;;;;;;22.75;46.95;98928.80;233985;1200;139206;-57
2022/07/14 04:45:35;;;;;;;8.00;4.00;;;;;;;22.67;47.20;98927.16;234014;1200;138693;-55
2022/07/14 04:56:00;;;;;;;6.80;3.30;;;;;;;22.62;47.33;98929.76;234099;1201;139121;-54
2022/07/14 05:01:12;;;;;;;7.20;3.10;;;;;;;22.63;47.40;98928.20;234017;1201;139143;-56
2022/07/14 05:06:19;;;;;;;6.90;3.30;;;;;;;22.66;47.41;98928.31;234060;1200;140241;-56
2022/07/14 05:11:22;;;;;;;4.40;2.70;;;;;;;22.72;47.34;98925.18;233909;1201;141037;-55
2022/07/14 05:16:31;;;;;;;7.00;2.60;;;;;;;22.73;47.18;98927.17;233852;1201;138476;-55
2022/07/14 05:21:55;;;;;;;12.40;3.90;;;;;;;22.80;47.08;98932.23;233970;1199;138758;-58
2022/07/14 05:26:59;;;;;;;9.40;3.30;;;;;;;22.90;47.20;98932.80;234135;1199;138952;-59
2022/07/14 05:32:04;;;;;;;5.90;3.70;;;;;;;22.97;47.27;98938.30;234130;1201;139355;-57
2022/07/14 05:37:08;;;;;;;8.30;3.50;;;;;;;23.01;47.33;98937.42;234002;1201;139231;-60
2022/07/14 05:42:12;;;;;;;10.80;3.50;;;;;;;23.03;47.47;98944.65;233950;1200;139568;-58
2022/07/14 05:47:15;;;;;;;9.70;3.70;;;;;;;23.08;47.58;98944.69;234185;1200;138692;-57
2022/07/14 05:52:18;;;;;;;9.40;3.60;;;;;;;23.18;47.71;98941.92;234027;1200;139080;-57
2022/07/14 05:57:22;;;;;;;8.80;3.30;;;;;;;23.28;47.69;98939.31;233868;1201;139101;-56
2022/07/14 06:02:25;;;;;;;13.40;3.30;;;;;;;23.38;47.60;98938.55;234030;1201;139031;-58
2022/07/14 06:07:28;;;;;;;8.50;2.90;;;;;;;23.51;47.51;98930.69;234196;1200;138702;-56
2022/07/14 06:12:32;;;;;;;4.50;2.50;;;;;;;23.63;47.41;98932.46;233987;1199;139038;-56
2022/07/14 06:17:35;;;;;;;11.20;2.80;;;;;;;23.78;47.18;98934.75;233982;1201;139387;-56
2022/07/14 06:22:39;;;;;;;5.40;2.80;;;;;;;23.93;47.04;98934.25;233956;1201;138981;-56
2022/07/14 06:27:42;;;;;;;5.20;2.20;;;;;;;24.06;46.72;98927.98;233948;1201;140277;-57
2022/07/14 06:32:46;;;;;;;11.10;2.30;;;;;;;24.17;46.32;98932.64;233998;1201;138987;-59
2022/07/14 06:37:53;;;;;;;10.70;3.20;;;;;;;24.28;46.06;98916.04;234054;1201;139033;-57
2022/07/14 06:42:57;;;;;;;4.10;1.70;;;;;;;24.43;46.01;98918.58;233872;1201;139068;-54
2022/07/14 06:48:23;;;;;;;5.50;1.80;;;;;;;24.60;45.55;98922.02;234019;1201;139040;-56
2022/07/14 06:53:25;;;;;;;6.00;2.00;;;;;;;24.75;45.24;98920.49;233935;1201;139717;-58
2022/07/14 06:58:30;;;;;;;7.30;1.70;;;;;;;24.87;44.91;98918.15;233863;1201;139783;-57
2022/07/14 07:03:33;;;;;;;6.70;1.80;;;;;;;24.99;44.80;98918.96;234073;1201;139287;-58
2022/07/14 07:08:35;;;;;;;8.20;2.00;;;;;;;25.13;44.68;98922.76;234139;1199;209723;-58
2022/07/14 07:13:38;;;;;;;9.20;1.70;;;;;;;25.25;44.48;98925.00;234144;1201;139137;-57
2022/07/14 07:18:41;;;;;;;6.20;1.80;;;;;;;25.35;44.16;98928.55;234082;1199;138924;-57
2022/07/14 07:23:46;;;;;;;5.00;2.00;;;;;;;25.43;44.11;98929.30;234076;1200;139646;-56
2022/07/14 07:28:49;;;;;;;6.80;1.80;;;;;;;25.53;44.09;98932.98;234051;1201;139293;-59
2022/07/14 07:33:53;;;;;;;5.90;1.70;;;;;;;25.60;43.94;98935.11;233955;1201;139044;-59
2022/07/14 07:38:56;;;;;;;4.40;1.60;;;;;;;25.64;43.52;98936.83;234061;1201;139255;-59
2022/07/14 07:43:59;;;;;;;3.70;1.80;;;;;;;25.62;43.37;98937.90;233984;1201;138526;-59
2022/07/14 07:49:02;;;;;;;10.50;2.00;;;;;;;25.65;43.17;98932.33;234075;1202;236825;-59
2022/07/14 07:54:05;;;;;;;3.30;1.60;;;;;;;25.74;43.15;98925.21;234088;1199;139049;-58
2022/07/14 07:59:08;;;;;;;3.40;1.70;;;;;;;25.82;42.94;98921.33;234161;1199;139196;-59
2022/07/14 08:04:11;;;;;;;9.30;1.80;;;;;;;25.88;42.93;98917.91;234050;1200;138844;-59
2022/07/14 08:09:14;;;;;;;13.30;2.10;;;;;;;25.96;43.09;98922.17;234058;1201;138828;-60
2022/07/14 08:19:38;;;;;;;8.90;1.90;;;;;;;26.12;42.94;98915.07;234172;1201;139210;-56
2022/07/14 08:24:41;;;;;;;4.60;2.10;;;;;;;26.19;42.83;98922.65;234081;1200;139845;-57
2022/07/14 08:29:44;;;;;;;6.60;1.90;;;;;;;26.25;42.55;98920.54;233835;1201;139435;-57
2022/07/14 08:34:47;;;;;;;2.90;2.20;;;;;;;26.30;42.58;98908.50;233915;1201;139376;-56
2022/07/14 08:39:50;;;;;;;85.40;61.60;;;;;;;26.35;42.45;98907.73;233785;1200;138697;-54
2022/07/14 08:44:54;;;;;;;7.50;4.20;;;;;;;26.41;42.42;98903.65;233986;1199;139677;-56
2022/07/14 08:49:56;;;;;;;7.40;2.60;;;;;;;26.49;42.41;98912.46;233947;1201;138996;-56
2022/07/14 08:55:10;;;;;;;4.80;2.30;;;;;;;26.54;42.30;98914.35;233982;1199;139811;-55
2022/07/14 09:00:17;;;;;;;8.10;2.50;;;;;;;26.58;42.21;98910.17;234036;1200;139668;-55
2022/07/14 09:05:20;;;;;;;6.30;2.40;;;;;;;26.66;42.29;98911.81;233883;1202;139378;-56
2022/07/14 09:10:27;;;;;;;41.80;31.40;;;;;;;26.74;42.46;98906.35;234007;1199;139388;-56
2022/07/14 09:15:45;;;;;;;5.40;3.70;;;;;;;26.84;42.55;98904.39;233878;1199;140016;-56
2022/07/14 09:20:49;;;;;;;6.60;3.20;;;;;;;26.97;42.58;98898.46;233953;1199;139445;-55
2022/07/14 09:26:08;;;;;;;5.70;2.80;;;;;;;27.10;42.38;98896.39;234098;1199;139226;-56
2022/07/14 09:31:21;;;;;;;5.40;2.20;;;;;;;27.23;42.14;98895.09;234005;1200;139230;-56
2022/07/14 09:36:32;;;;;;;5.60;2.30;;;;;;;27.35;41.92;98895.17;234011;1200;139713;-56
2022/07/14 09:41:51;;;;;;;63.60;49.50;;;;;;;27.49;41.78;98895.70;233958;1200;140045;-56
2022/07/14 09:46:56;;;;;;;6.90;2.40;;;;;;;27.60;41.48;98899.46;233863;1200;139195;-54
2022/07/14 09:52:04;;;;;;;7.80;2.40;;;;;;;27.73;41.34;98901.70;233804;1202;139763;-56
2022/07/14 09:57:09;;;;;;;6.00;2.20;;;;;;;27.88;41.07;98893.58;233983;1201;139363;-56
2022/07/14 10:02:21;;;;;;;6.40;2.40;;;;;;;27.99;40.77;98897.31;234050;1200;139392;-55
2022/07/14 10:07:25;;;;;;;17.20;2.80;;;;;;;28.11;40.76;98892.67;233961;1203;139039;-56
2022/07/14 10:12:29;;;;;;;8.90;2.30;;;;;;;28.25;40.49;98888.21;233988;1201;139798;-56
2022/07/14 10:17:35;;;;;;;4.00;2.00;;;;;;;28.39;40.23;98886.52;234006;1200;139306;-55
2022/07/14 10:22:40;;;;;;;4.70;2.30;;;;;;;28.58;39.99;98879.83;233930;1200;142072;-58
2022/07/14 10:27:43;;;;;;;6.90;2.60;;;;;;;28.80;39.63;98879.46;233921;1199;139101;-57
2022/07/14 10:32:56;;;;;;;5.70;2.20;;;;;;;29.00;39.39;98877.78;233829;1203;140693;-57
2022/07/14 10:38:27;;;;;;;8.40;2.00;;;;;;;29.20;39.37;98872.22;234032;1200;139413;-57
2022/07/14 10:43:52;;;;;;;9.10;2.40;;;;;;;29.36;38.54;98874.48;234093;1199;139001;-57
2022/07/14 10:48:55;;;;;;;;;;;;;;;29.43;38.21;98873.59;233957;1199;139565;-58
2022/07/14 10:54:13;;;;;;;5.00;2.10;;;;;;;29.52;38.11;98870.27;234047;1200;125584;-58
2022/07/14 10:59:37;;;;;;;8.70;2.10;;;;;;;29.69;37.84;98862.88;234004;1199;139123;-57
2022/07/14 11:04:59;;;;;;;8.40;2.20;;;;;;;29.87;37.69;98862.02;234091;1199;139394;-58
2022/07/14 11:10:10;;;;;;;5.70;2.10;;;;;;;29.96;37.20;98850.36;234049;1200;139278;-58
2022/07/14 11:15:38;;;;;;;28.40;23.60;;;;;;;29.90;36.82;98850.45;233845;1199;139420;-58
2022/07/14 11:20:48;;;;;;;8.10;3.00;;;;;;;29.89;36.67;98837.26;233926;1200;140463;-58
2022/07/14 11:25:53;;;;;;;4.00;2.00;;;;;;;30.06;36.61;98839.44;234082;1201;138729;-58
2022/07/14 11:31:19;;;;;;;4.80;2.10;;;;;;;30.18;36.63;98833.11;233998;1200;139043;-58
2022/07/14 11:36:22;;;;;;;3.50;2.00;;;;;;;30.29;36.33;98828.91;233949;1200;140406;-58
2022/07/14 11:41:45;;;;;;;9.80;2.30;;;;;;;30.49;36.35;98822.94;234022;1200;138982;-56
2022/07/14 11:46:58;;;;;;;5.10;2.20;;;;;;;30.72;36.08;98825.49;233910;1201;139444;-56
2022/07/14 11:52:06;;;;;;;4.30;2.10;;;;;;;30.75;35.66;98824.02;234099;1199;139563;-55
2022/07/14 11:57:10;;;;;;;5.10;1.90;;;;;;;30.67;35.20;98824.92;234113;1199;139038;-58
2022/07/14 12:02:15;;;;;;;2.40;1.90;;;;;;;30.43;35.11;98820.05;234271;1199;138526;-58
2022/07/14 12:07:22;;;;;;;4.80;2.30;;;;;;;30.19;35.32;98818.83;233929;1201;139683;-57
2022/07/14 12:12:25;;;;;;;6.30;2.10;;;;;;;29.98;35.35;98817.08;233957;1200;139035;-57
2022/07/14 12:17:28;;;;;;;5.20;2.00;;;;;;;29.82;35.48;98819.85;234091;1200;139350;-55
2022/07/14 12:22:42;;;;;;;9.50;2.00;;;;;;;29.74;35.46;98813.59;234110;1200;138881;-56
2022/07/14 12:27:46;;;;;;;9.00;2.20;;;;;;;29.83;36.09;98806.04;234019;1199;139273;-58
2022/07/14 12:32:53;;;;;;;7.70;2.10;;;;;;;30.03;36.15;98809.30;233895;1200;138899;-56
2022/07/14 12:37:57;;;;;;;3.80;2.20;;;;;;;30.04;35.87;98806.93;233992;1200;138814;-57
2022/07/14 12:43:21;;;;;;;3.20;2.40;;;;;;;30.00;36.19;98799.32;233802;1200;138889;-56
2022/07/14 12:48:24;;;;;;;;;;;;;;;29.89;35.89;98798.34;233944;1199;138279;-57
2022/07/14 12:53:27;;;;;;;5.70;2.20;;;;;;;29.79;36.06;98798.17;234047;1200;125344;-53
2022/07/14 12:58:33;;;;;;;7.50;2.10;;;;;;;29.75;36.16;98801.76;233960;1200;139177;-56
2022/07/14 13:03:37;;;;;;;7.20;2.50;;;;;;;29.69;35.96;98798.56;233861;1199;138655;-57
2022/07/14 13:08:40;;;;;;;71.90;56.30;;;;;;;29.61;36.07;98794.20;234031;1200;141494;-55
2022/07/14 13:13:48;;;;;;;12.40;6.20;;;;;;;29.53;35.82;98790.98;234156;1200;139558;-55
2022/07/14 13:19:22;;;;;;;5.10;3.30;;;;;;;29.42;36.17;98787.35;233946;1199;139300;-56
2022/07/14 13:24:28;;;;;;;11.90;2.50;;;;;;;29.31;36.26;98782.64;233853;1201;138574;-58
2022/07/14 13:29:37;;;;;;;9.00;2.50;;;;;;;29.20;36.42;98777.62;233935;1201;139034;-57
2022/07/14 13:34:41;;;;;;;9.30;3.70;;;;;;;29.08;36.54;98773.91;234112;1199;139691;-56
2022/07/14 13:39:44;;;;;;;6.00;2.30;;;;;;;28.95;36.55;98775.69;234014;1200;138746;-58
2022/07/14 13:44:47;;;;;;;6.80;2.20;;;;;;;28.84;36.56;98767.88;233921;1199;139382;-58
2022/07/14 13:55:16;;;;;;;7.70;2.40;;;;;;;28.66;36.94;98753.05;233649;1201;139084;-58
2022/07/14 14:00:19;;;;;;;6.90;3.10;;;;;;;28.57;37.10;98743.40;234086;1199;139036;-58
2022/07/14 14:05:22;;;;;;;7.30;2.40;;;;;;;28.47;37.17;98749.61;233997;1200;139512;-58
2022/07/14 14:10:25;;;;;;;11.10;2.90;;;;;;;28.39;37.36;98757.85;233885;1200;139308;-56
2022/07/14 14:15:34;;;;;;;9.60;2.60;;;;;;;28.33;37.62;98767.29;234010;1199;139448;-58
2022/07/14 14:20:37;;;;;;;12.20;2.70;;;;;;;28.22;37.91;98798.73;234100;1199;139097;-58
2022/07/14 14:25:40;;;;;;;26.20;20.40;;;;;;;27.91;39.09;98818.36;233995;1200;139615;-58
2022/07/14 14:30:43;;;;;;;10.10;3.80;;;;;;;27.44;40.44;98797.75;233989;1199;139474;-59
2022/07/14 14:35:46;;;;;;;4.90;3.10;;;;;;;27.02;41.67;98766.27;233963;1199;139202;-59
2022/07/14 14:40:49;;;;;;;11.20;3.80;;;;;;;26.70;42.80;98754.18;233994;1199;139064;-59
2022/07/14 14:45:52;;;;;;;6.40;3.20;;;;;;;26.48;43.86;98750.11;233845;1200;139420;-59
2022/07/14 14:50:55;;;;;;;4.00;3.00;;;;;;;26.30;44.54;98747.35;233857;1200;139543;-60
2022/07/14 14:55:58;;;;;;;4.20;2.90;;;;;;;26.27;45.34;98748.13;234015;1199;139059;-59
2022/07/14 15:01:02;;;;;;;6.10;3.10;;;;;;;26.32;45.70;98742.27;234112;1199;138597;-61
2022/07/14 15:06:08;;;;;;;7.90;3.10;;;;;;;26.44;46.22;98731.91;233862;1200;140028;-60
2022/07/14 15:11:12;;;;;;;7.60;3.30;;;;;;;26.50;46.51;98729.65;233934;1199;139104;-60
2022/07/14 15:16:15;;;;;;;8.80;3.30;;;;;;;26.54;46.76;98730.88;234071;1199;139029;-61
2022/07/14 15:21:18;;;;;;;7.50;3.00;;;;;;;26.60;46.97;98726.98;233011;1199;139028;-57
2022/07/14 15:26:22;;;;;;;7.20;3.30;;;;;;;26.68;46.80;98725.04;233562;1202;138864;-56
2022/07/14 15:31:46;;;;;;;25.10;21.00;;;;;;;26.73;46.48;98724.20;233959;1201;138626;-58
2022/07/14 15:36:49;;;;;;;5.60;3.60;;;;;;;26.70;46.69;98723.86;233927;1200;139518;-59
2022/07/14 15:41:53;;;;;;;5.00;3.00;;;;;;;26.74;46.69;98720.00;233985;1201;139486;-59
2022/07/14 15:46:56;;;;;;;8.20;3.10;;;;;;;26.77;46.39;98724.47;233892;1201;139531;-59
2022/07/14 15:51:59;;;;;;;5.50;3.20;;;;;;;26.73;46.30;98726.02;233885;1201;139088;-58
2022/07/14 15:57:02;;;;;;;3.90;2.80;;;;;;;26.64;46.30;98726.63;233975;1199;139276;-58
2022/07/14 16:02:05;;;;;;;4.20;3.10;;;;;;;26.55;46.76;98733.14;234129;1199;138752;-59
2022/07/14 16:07:08;;;;;;;11.00;5.00;;;;;;;26.51;47.04;98736.61;233914;1200;139891;-55
2022/07/14 16:12:11;;;;;;;55.10;46.20;;;;;;;26.52;47.80;98745.56;233883;1199;139839;-58
2022/07/14 16:17:14;;;;;;;8.90;5.00;;;;;;;26.54;47.89;98754.17;233866;1200;139360;-57
2022/07/14 16:22:17;;;;;;;10.80;4.50;;;;;;;26.55;48.02;98750.11;233851;1200;139010;-56
2022/07/14 16:27:21;;;;;;;8.30;3.50;;;;;;;26.57;48.53;98727.39;233806;1200;139439;-55
2022/07/14 16:32:24;;;;;;;8.70;3.90;;;;;;;26.60;48.65;98707.00;234058;1200;138808;-57
2022/07/14 16:37:27;;;;;;;34.40;28.60;;;;;;;26.62;48.75;98692.30;233964;1201;139097;-57
2022/07/14 16:42:30;;;;;;;7.80;5.10;;;;;;;26.69;49.09;98691.98;234081;1199;140098;-57
2022/07/14 16:47:34;;;;;;;8.90;4.10;;;;;;;26.75;49.06;98689.64;233865;1200;139428;-55
2022/07/14 16:52:37;;;;;;;8.20;4.00;;;;;;;26.84;49.22;98678.60;233917;1200;139158;-57
2022/07/14 16:57:40;;;;;;;13.50;9.70;;;;;;;26.92;49.18;98663.39;233920;1200;138884;-56
2022/07/14 17:02:44;;;;;;;446.10;398.60;;;;;;;26.94;49.15;98659.73;234012;1199;139351;-57
2022/07/14 17:08:07;;;;;;;26.10;23.40;;;;;;;27.00;49.54;98659.91;234102;1199;140209;-56
2022/07/14 17:13:10;;;;;;;12.30;7.10;;;;;;;27.04;49.63;98658.61;234066;1199;140050;-58
2022/07/14 17:18:13;;;;;;;28.60;21.00;;;;;;;27.04;49.71;98652.56;234018;1199;139562;-58
2022/07/14 17:23:16;;;;;;;19.20;11.50;;;;;;;27.03;49.58;98649.80;234040;1199;139009;-57
2022/07/14 17:28:20;;;;;;;8.20;5.10;;;;;;;27.02;49.69;98646.70;233914;1200;139705;-57
2022/07/14 17:33:23;;;;;;;32.30;26.80;;;;;;;26.97;49.69;98641.97;234000;1200;141960;-59
2022/07/14 17:38:28;;;;;;;8.30;5.20;;;;;;;26.90;49.96;98639.02;233939;1201;139762;-56
2022/07/14 17:43:32;;;;;;;10.10;4.70;;;;;;;26.83;49.87;98634.03;233843;1201;139009;-58
2022/07/14 17:48:36;;;;;;;7.80;4.50;;;;;;;26.78;50.02;98627.01;233909;1199;140179;-59
2022/07/14 17:53:39;;;;;;;11.20;4.40;;;;;;;26.78;49.96;98622.73;233798;1199;139777;-56
2022/07/14 17:59:02;;;;;;;6.70;4.10;;;;;;;26.74;50.05;98614.82;233913;1199;151390;-58
2022/07/14 18:04:05;;;;;;;50.30;34.20;;;;;;;26.70;50.06;98609.77;233936;1200;139017;-59
2022/07/14 18:09:09;;;;;;;13.60;6.80;;;;;;;26.57;50.20;98607.67;233817;1200;139621;-57
2022/07/14 18:14:13;;;;;;;9.50;4.80;;;;;;;26.53;50.38;98595.86;233955;1201;139113;-57
2022/07/14 18:19:17;;;;;;;15.00;4.40;;;;;;;26.52;50.39;98592.96;233913;1200;138957;-58
2022/07/14 18:24:19;;;;;;;6.50;4.70;;;;;;;26.49;50.37;98584.22;233853;1201;140435;-56
2022/07/14 18:29:23;;;;;;;8.80;4.00;;;;;;;26.46;50.37;98580.80;233788;1199;141620;-58
2022/07/14 18:34:26;;;;;;;8.10;4.30;;;;;;;26.38;50.58;98581.80;233943;1199;139371;-56
2022/07/14 18:39:29;;;;;;;16.20;10.80;;;;;;;26.33;50.78;98580.27;233916;1201;140122;-57
2022/07/14 18:50:05;;;;;;;8.80;5.00;;;;;;;26.17;51.13;98580.63;234139;1199;140651;-53
2022/07/14 18:55:12;;;;;;;183.30;156.50;;;;;;;26.09;51.16;98581.98;234046;1199;139126;-58
2022/07/14 19:00:16;;;;;;;19.20;14.40;;;;;;;25.98;51.56;98574.16;233861;1201;140137;-57
2022/07/14 19:05:19;;;;;;;10.50;4.70;;;;;;;25.84;51.79;98563.83;234061;1200;139204;-58
2022/07/14 19:10:22;;;;;;;9.90;4.30;;;;;;;25.69;52.10;98561.45;234053;1199;138956;-58
2022/07/14 19:15:26;;;;;;;6.80;4.10;;;;;;;25.55;52.29;98550.41;234121;1199;140029;-59
2022/07/14 19:20:29;;;;;;;8.70;4.40;;;;;;;25.50;52.55;98557.84;234183;1199;139113;-59
2022/07/14 19:25:33;;;;;;;8.70;4.40;;;;;;;25.45;52.88;98556.11;234059;1200;138889;-59
2022/07/14 19:30:37;;;;;;;12.10;4.90;;;;;;;25.39;53.17;98555.32;233912;1201;139655;-59
2022/07/14 19:35:40;;;;;;;11.00;5.20;;;;;;;25.34;53.65;98556.89;233891;1201;139384;-57
2022/07/14 19:40:44;;;;;;;10.20;5.30;;;;;;;25.33;53.81;98565.02;234055;1200;139564;-58
2022/07/14 19:45:49;;;;;;;12.20;5.20;;;;;;;25.35;54.02;98569.55;234095;1199;139529;-58
2022/07/14 19:50:51;;;;;;;12.30;4.80;;;;;;;25.36;53.93;98582.59;233956;1201;141701;-58
2022/07/14 19:55:55;;;;;;;14.20;4.80;;;;;;;25.34;54.04;98594.25;234153;1201;141013;-60
2022/07/14 20:00:58;;;;;;;10.90;5.20;;;;;;;25.32;54.25;98596.66;234074;1199;139079;-59
2022/07/14 20:06:20;;;;;;;9.90;5.50;;;;;;;25.31;54.20;98597.31;234130;1200;140327;-62
2022/07/14 20:11:23;;;;;;;11.90;5.00;;;;;;;25.25;54.41;98611.27;233938;1201;138859;-61
2022/07/14 20:16:26;;;;;;;10.40;4.50;;;;;;;25.16;54.45;98637.24;234006;1201;139109;-61
2022/07/14 20:21:29;;;;;;;6.70;4.20;;;;;;;25.12;54.63;98629.55;234066;1201;139223;-60
2022/07/14 20:26:32;;;;;;;5.90;4.50;;;;;;;25.05;54.53;98623.17;234165;1200;140096;-60
2022/07/14 20:36:57;;;;;;;10.40;3.80;;;;;;;24.89;53.89;98639.98;233914;1201;139427;-59
2022/07/14 20:42:00;;;;;;;9.40;4.40;;;;;;;24.74;53.83;98669.95;234103;1200;139417;-60
2022/07/14 20:47:16;;;;;;;8.10;4.30;;;;;;;24.62;53.98;98695.26;234092;1199;140632;-61
2022/07/14 20:52:22;;;;;;;7.10;4.30;;;;;;;24.53;54.17;98736.77;234114;1200;139329;-60
2022/07/14 20:57:25;;;;;;;9.40;4.70;;;;;;;24.26;54.37;98765.61;234129;1200;138675;-61
2022/07/14 21:02:28;;;;;;;14.10;4.90;;;;;;;23.80;54.66;98777.56;234191;1200;138787;-60
2022/07/14 21:07:33;;;;;;;6.60;4.20;;;;;;;23.46;55.20;98774.63;234101;1201;139621;-60
2022/07/14 21:12:36;;;;;;;4.80;3.70;;;;;;;23.22;55.59;98777.87;234007;1200;139569;-59
2022/07/14 21:17:39;;;;;;;5.50;3.20;;;;;;;23.02;56.01;98782.98;234089;1200;140301;-60
2022/07/14 21:22:43;;;;;;;4.60;2.90;;;;;;;22.83;55.96;98777.28;234033;1201;139834;-59
2022/07/14 21:27:46;;;;;;;2.70;2.10;;;;;;;22.67;55.91;98763.52;233416;1201;138958;-59
2022/07/14 21:32:49;;;;;;;1.60;1.50;;;;;;;22.45;55.57;98758.08;233925;1201;139628;-60
2022/07/14 21:37:53;;;;;;;3.90;1.60;;;;;;;22.14;55.42;98755.30;234221;1200;138797;-60
2022/07/14 21:42:56;;;;;;;1.90;1.10;;;;;;;21.94;55.46;98752.92;234066;1201;139468;-59
2022/07/14 21:48:01;;;;;;;3.50;2.60;;;;;;;21.75;55.48;98731.61;234023;1200;138989;-59
2022/07/14 21:53:04;;;;;;;2.90;1.90;;;;;;;21.66;55.45;98712.91;233989;1200;139414;-61
2022/07/14 21:58:07;;;;;;;1.20;1.00;;;;;;;21.62;55.66;98698.43;233986;1202;138976;-61
2022/07/14 22:03:11;;;;;;;2.90;1.30;;;;;;;21.54;55.52;98748.95;234147;1199;139351;-60
2022/07/14 22:08:14;;;;;;;5.80;1.70;;;;;;;21.37;55.96;98795.80;234313;1199;139672;-60
2022/07/14 22:13:17;;;;;;;2.60;1.60;;;;;;;21.17;56.33;98807.67;234088;1200;138972;-59
2022/07/14 22:18:20;;;;;;;1.70;1.60;;;;;;;21.00;56.70;98817.37;233955;1201;141382;-60
2022/07/14 22:23:33;;;;;;;3.80;1.80;;;;;;;20.92;57.21;98807.73;234124;1199;142923;-60
2022/07/14 22:28:36;;;;;;;3.80;2.90;;;;;;;20.91;57.60;98806.02;234158;1199;139524;-60
2022/07/14 22:33:40;;;;;;;2.60;1.80;;;;;;;20.96;58.13;98787.96;234167;1200;138668;-60
2022/07/14 22:38:43;;;;;;;4.70;2.00;;;;;;;20.99;58.23;98775.77;234132;1202;140149;-61
2022/07/14 22:43:46;;;;;;;4.30;1.80;;;;;;;20.95;58.29;98759.57;234077;1202;139368;-63
2022/07/14 22:48:49;;;;;;;2.00;1.80;;;;;;;20.91;58.32;98754.82;233899;1201;141680;-63
2022/07/14 22:53:52;;;;;;;4.40;1.80;;;;;;;20.85;58.42;98756.33;234076;1200;138730;-60
2022/07/14 22:58:55;;;;;;;3.00;1.90;;;;;;;20.79;58.83;98762.64;234078;1200;139942;-59
2022/07/14 23:03:58;;;;;;;4.00;2.10;;;;;;;20.76;59.10;98764.55;234086;1199;139222;-58
2022/07/14 23:09:03;;;;;;;3.10;2.20;;;;;;;20.69;59.41;98766.05;233986;1199;138906;-59
2022/07/14 23:14:05;;;;;;;2.80;2.30;;;;;;;20.63;59.68;98762.02;234140;1202;140569;-59
2022/07/14 23:19:08;;;;;;;5.50;2.30;;;;;;;20.60;59.92;98739.66;234103;1199;138819;-61
2022/07/14 23:24:11;;;;;;;2.70;1.90;;;;;;;20.59;60.18;98685.14;234078;1200;139995;-60
2022/07/14 23:29:14;;;;;;;2.90;2.10;;;;;;;20.59;60.39;98661.45;234040;1202;140073;-61
2022/07/14 23:34:17;;;;;;;3.70;2.30;;;;;;;20.64;60.66;98658.14;233949;1202;139513;-57
2022/07/14 23:39:20;;;;;;;3.00;2.50;;;;;;;20.60;60.78;98671.70;234038;1201;139262;-58
2022/07/14 23:44:23;;;;;;;3.60;2.40;;;;;;;20.57;61.06;98693.26;234124;1201;139273;-60